createdAt,value
2023-02-17T00:01:21.904Z,98023.75
2023-02-17T00:06:26.648Z,98028.31
2023-02-17T00:11:28.692Z,98026.75
2023-02-17T00:16:30.400Z,98020.59
2023-02-17T00:21:32.561Z,98022.75
2023-02-17T00:26:34.261Z,98014.59
2023-02-17T00:31:36.192Z,98010.50
2023-02-17T00:36:38.783Z,98015.31
2023-02-17T00:41:41.033Z,98026.50
2023-02-17T00:46:42.784Z,98012.78
2023-02-17T00:51:45.788Z,98013.75
2023-02-17T00:56:47.536Z,98019.94
2023-02-17T01:01:49.294Z,98023.03
2023-02-17T01:06:51.091Z,98032.81
2023-02-17T01:11:53.006Z,98031.88
2023-02-17T01:16:54.729Z,98028.84
2023-02-17T01:21:56.535Z,98027.53
2023-02-17T01:26:58.244Z,98024.56
2023-02-17T01:32:02.540Z,98014.63
2023-02-17T01:37:04.863Z,98024.28
2023-02-17T01:42:16.606Z,98012.91
2023-02-17T01:47:18.477Z,98002.81
2023-02-17T01:52:25.290Z,97994.38
2023-02-17T01:57:30.240Z,97977.31
2023-02-17T02:02:32.850Z,97967.63
2023-02-17T02:07:39.017Z,97972.47
2023-02-17T02:12:42.955Z,97970.25
2023-02-17T02:18:09.633Z,97967.97
2023-02-17T02:23:29.861Z,97964.53
2023-02-17T02:29:09.464Z,97959.22
2023-02-17T02:34:20.780Z,97952.19
2023-02-17T02:39:28.188Z,97944.63
2023-02-17T02:44:30.516Z,97946.03
2023-02-17T02:49:35.465Z,97935.47
2023-02-17T02:55:10.005Z,97927.59
2023-02-17T03:00:29.901Z,97913.00
2023-02-17T03:05:57.250Z,97906.81
2023-02-17T03:11:00.581Z,97907.19
2023-02-17T03:16:09.127Z,97891.16
2023-02-17T03:21:15.841Z,97894.31
2023-02-17T03:26:18.229Z,97886.81
2023-02-17T03:31:21.923Z,97889.75
2023-02-17T03:36:23.679Z,97888.78
2023-02-17T03:41:25.964Z,97881.25
2023-02-17T03:46:27.686Z,97877.56
2023-02-17T03:51:29.472Z,97879.56
2023-02-17T03:56:31.676Z,97884.88
2023-02-17T04:01:33.618Z,97893.16
2023-02-17T04:06:35.476Z,97888.38
2023-02-17T04:11:37.589Z,97886.91
2023-02-17T04:16:39.396Z,97880.94
2023-02-17T04:21:41.270Z,97883.69
2023-02-17T04:26:42.947Z,97888.91
2023-02-17T04:31:44.694Z,97883.19
2023-02-17T04:36:46.428Z,97890.91
2023-02-17T04:41:48.272Z,97885.94
2023-02-17T04:46:49.912Z,97884.94
2023-02-17T04:51:51.948Z,97876.25
2023-02-17T04:56:53.611Z,97875.16
2023-02-17T05:01:55.231Z,97875.16
2023-02-17T05:06:56.986Z,97869.69
2023-02-17T05:11:59.113Z,97868.03
2023-02-17T05:17:00.809Z,97875.53
2023-02-17T05:22:02.894Z,97868.72
2023-02-17T05:27:04.650Z,97859.19
2023-02-17T05:32:06.398Z,97857.28
2023-02-17T05:37:08.145Z,97864.41
2023-02-17T05:42:09.922Z,97873.19
2023-02-17T05:47:11.764Z,97882.50
2023-02-17T05:52:13.461Z,97873.69
2023-02-17T05:57:15.117Z,97875.94
2023-02-17T06:02:16.836Z,97882.00
2023-02-17T06:07:18.889Z,97892.94
2023-02-17T06:12:20.828Z,97889.72
2023-02-17T06:17:22.582Z,97887.63
2023-02-17T06:22:24.302Z,97893.66
2023-02-17T06:27:26.168Z,97886.88
2023-02-17T06:32:28.221Z,97889.38
2023-02-17T06:37:29.991Z,97895.41
2023-02-17T06:42:31.770Z,97889.38
2023-02-17T06:47:34.635Z,97892.66
2023-02-17T06:52:36.699Z,97887.28
2023-02-17T06:57:38.376Z,97897.72
2023-02-17T07:02:40.837Z,97881.66
2023-02-17T07:07:42.661Z,97889.63
2023-02-17T07:12:44.687Z,97899.56
2023-02-17T07:17:46.734Z,97897.97
2023-02-17T07:22:48.496Z,97900.22
2023-02-17T07:27:50.209Z,97900.28
2023-02-17T07:32:51.792Z,97905.81
2023-02-17T07:37:53.528Z,97908.31
2023-02-17T07:42:56.885Z,97905.66
2023-02-17T07:47:58.617Z,97903.25
2023-02-17T07:53:00.601Z,97907.97
2023-02-17T07:58:02.284Z,97898.50
2023-02-17T08:03:04.282Z,97912.91
2023-02-17T08:08:24.569Z,97893.59
2023-02-17T08:13:27.652Z,97905.28
2023-02-17T08:18:34.339Z,97913.56
2023-02-17T08:23:38.108Z,97909.47
2023-02-17T08:28:40.298Z,97919.34
2023-02-17T08:33:42.011Z,97912.28
2023-02-17T08:38:48.528Z,97917.38
2023-02-17T08:43:51.079Z,97916.56
2023-02-17T08:48:55.765Z,97917.03
2023-02-17T08:54:00.712Z,97937.72
2023-02-17T08:59:02.575Z,97927.66
2023-02-17T09:04:06.830Z,97935.66
2023-02-17T09:09:11.673Z,97919.81
2023-02-17T09:14:13.747Z,97922.59
2023-02-17T09:19:15.879Z,97925.72
2023-02-17T09:24:17.961Z,97931.22
2023-02-17T09:29:19.665Z,97927.75
2023-02-17T09:34:21.401Z,97934.69
2023-02-17T09:39:25.456Z,97921.81
2023-02-17T09:44:43.954Z,97933.38
2023-02-17T09:49:51.132Z,97918.00
2023-02-17T09:55:01.472Z,97917.22
2023-02-17T10:00:35.276Z,97909.59
2023-02-17T10:05:51.295Z,97907.28
2023-02-17T10:11:00.654Z,97908.97
2023-02-17T10:16:10.171Z,97902.41
2023-02-17T10:21:35.376Z,97912.09
2023-02-17T10:26:57.322Z,97902.78
2023-02-17T10:32:19.970Z,97899.22
2023-02-17T10:37:33.273Z,97916.31
2023-02-17T10:42:38.145Z,97914.41
2023-02-17T10:47:41.115Z,97909.19
2023-02-17T10:52:46.441Z,97906.47
2023-02-17T10:57:52.362Z,97897.94
2023-02-17T11:02:54.303Z,97877.88
2023-02-17T11:08:00.653Z,97882.00
2023-02-17T11:13:19.421Z,97883.41
2023-02-17T11:18:27.913Z,97860.84
2023-02-17T11:23:29.922Z,97864.69
2023-02-17T11:28:31.976Z,97852.00
2023-02-17T11:33:37.197Z,97852.00
2023-02-17T11:38:38.823Z,97845.41
2023-02-17T11:43:51.803Z,97843.72
2023-02-17T11:49:05.128Z,97834.34
2023-02-17T11:54:22.939Z,97845.34
2023-02-17T11:59:40.372Z,97839.84
2023-02-17T12:04:52.881Z,97824.47
2023-02-17T12:10:06.913Z,97817.88
2023-02-17T12:15:17.318Z,97815.13
2023-02-17T12:20:50.960Z,97823.44
2023-02-17T12:26:05.031Z,97808.03
2023-02-17T12:31:12.084Z,97808.03
2023-02-17T12:36:20.126Z,97818.19
2023-02-17T12:41:37.290Z,97808.56
2023-02-17T12:46:43.058Z,97808.53
2023-02-17T12:51:51.852Z,97804.41
2023-02-17T12:56:59.956Z,97802.19
2023-02-17T13:02:07.635Z,97818.47
2023-02-17T13:07:43.606Z,97814.84
2023-02-17T13:13:06.155Z,97811.28
2023-02-17T13:18:27.500Z,97811.25
2023-02-17T13:23:35.274Z,97821.97
2023-02-17T13:28:40.641Z,97821.31
2023-02-17T13:33:46.561Z,97835.84
2023-02-17T13:44:40.208Z,97839.22
2023-02-17T13:49:42.371Z,97824.09
2023-02-17T13:55:19.021Z,97821.09
2023-02-17T14:00:24.240Z,97828.72
2023-02-17T14:05:32.177Z,97834.94
2023-02-17T14:10:36.036Z,97821.22
2023-02-17T14:15:38.887Z,97821.22
2023-02-17T14:20:41.251Z,97831.94
2023-02-17T14:25:46.571Z,97806.16
2023-02-17T14:30:48.975Z,97814.72
2023-02-17T14:35:58.082Z,97797.41
2023-02-17T14:41:01.214Z,97790.84
2023-02-17T14:46:03.215Z,97792.53
2023-02-17T14:51:12.764Z,97786.25
2023-02-17T14:56:27.509Z,97779.44
2023-02-17T15:01:29.252Z,97772.84
2023-02-17T15:06:40.970Z,97763.81
2023-02-17T15:11:46.267Z,97774.03
2023-02-17T15:16:48.793Z,97767.69
2023-02-17T15:21:51.905Z,97767.44
2023-02-17T15:26:54.327Z,97790.25
2023-02-17T15:31:59.957Z,97782.00
2023-02-17T15:37:02.742Z,97781.19
2023-02-17T15:42:11.455Z,97776.53
2023-02-17T15:47:16.105Z,97767.47
2023-02-17T15:52:18.015Z,97768.84
2023-02-17T15:57:24.771Z,97758.41
2023-02-17T16:02:26.546Z,97764.72
2023-02-17T16:07:28.215Z,97771.88
2023-02-17T16:12:30.007Z,97780.38
2023-02-17T16:17:31.952Z,97771.00
2023-02-17T16:22:33.721Z,97780.88
2023-02-17T16:27:36.758Z,97774.84
2023-02-17T16:32:38.563Z,97777.00
2023-02-17T16:37:40.306Z,97794.31
2023-02-17T16:42:42.275Z,97787.09
2023-02-17T16:47:47.429Z,97775.25
2023-02-17T16:52:49.158Z,97777.69
2023-02-17T16:57:51.324Z,97797.19
2023-02-17T17:02:53.685Z,97798.81
2023-02-17T17:07:56.488Z,97802.09
2023-02-17T17:12:58.266Z,97811.38
2023-02-17T17:18:02.635Z,97795.44
2023-02-17T17:23:11.579Z,97791.53
2023-02-17T17:28:14.945Z,97780.50
2023-02-17T17:33:17.152Z,97774.72
2023-02-17T17:38:19.516Z,97778.25
2023-02-17T17:43:36.398Z,97765.06
2023-02-17T17:48:38.149Z,97777.13
2023-02-17T17:53:40.029Z,97804.03
2023-02-17T17:58:42.168Z,97792.41
2023-02-17T18:03:43.894Z,97804.53
2023-02-17T18:08:47.574Z,97799.63
2023-02-17T18:13:51.919Z,97828.19
2023-02-17T18:18:56.145Z,97804.28
2023-02-17T18:23:57.881Z,97805.13
2023-02-17T18:29:00.603Z,97825.19
2023-02-17T18:34:02.296Z,97819.41
2023-02-17T18:39:05.102Z,97822.72
2023-02-17T18:44:07.027Z,97811.19
2023-02-17T18:49:08.770Z,97818.38
2023-02-17T18:54:11.029Z,97804.63
2023-02-17T18:59:12.849Z,97812.81
2023-02-17T19:04:15.307Z,97829.25
2023-02-17T19:09:17.461Z,97831.44
2023-02-17T19:14:19.089Z,97823.53
2023-02-17T19:19:20.797Z,97833.69
2023-02-17T19:24:22.873Z,97845.81
2023-02-17T19:29:24.685Z,97834.31
2023-02-17T19:34:28.172Z,97837.06
2023-02-17T19:39:31.215Z,97839.88
2023-02-17T19:44:32.926Z,97842.03
2023-02-17T19:49:34.767Z,97843.19
2023-02-17T19:54:36.735Z,97847.00
2023-02-17T19:59:38.501Z,97845.66
2023-02-17T20:04:40.473Z,97850.31
2023-02-17T20:09:44.497Z,97856.66
2023-02-17T20:14:46.270Z,97864.63
2023-02-17T20:19:47.943Z,97860.25
2023-02-17T20:24:49.589Z,97859.72
2023-02-17T20:29:51.471Z,97879.75
2023-02-17T20:34:53.134Z,97870.66
2023-02-17T20:39:54.779Z,97867.69
2023-02-17T20:44:56.781Z,97866.91
2023-02-17T20:49:58.476Z,97865.25
2023-02-17T20:55:00.381Z,97862.50
2023-02-17T21:00:04.649Z,97875.16
2023-02-17T21:05:06.653Z,97880.63
2023-02-17T21:10:14.760Z,97880.94
2023-02-17T21:15:17.229Z,97893.88
2023-02-17T21:20:21.041Z,97883.22
2023-02-17T21:25:23.126Z,97891.22
2023-02-17T21:30:26.605Z,97884.06
2023-02-17T21:35:28.695Z,97885.78
2023-02-17T21:40:30.540Z,97894.03
2023-02-17T21:45:37.676Z,97901.69
2023-02-17T21:50:39.742Z,97902.84
2023-02-17T21:55:41.411Z,97901.16
2023-02-17T22:00:43.253Z,97917.13
2023-02-17T22:05:45.237Z,97918.00
2023-02-17T22:10:46.898Z,97919.34
2023-02-17T22:15:57.909Z,97924.84
2023-02-17T22:20:59.552Z,97922.09
2023-02-17T22:26:06.097Z,97927.31
2023-02-17T22:31:08.460Z,97924.84
2023-02-17T22:36:16.206Z,97941.03
2023-02-17T22:41:20.024Z,97947.84
2023-02-17T22:46:24.614Z,97958.22
2023-02-17T22:51:30.596Z,97939.50
2023-02-17T22:56:33.116Z,97930.41
2023-02-17T23:01:36.343Z,97951.59
2023-02-17T23:06:38.282Z,97938.66
2023-02-17T23:11:58.280Z,97945.53
2023-02-17T23:17:03.489Z,97954.88
2023-02-17T23:22:16.981Z,97955.38
2023-02-17T23:27:21.198Z,97953.44
2023-02-17T23:32:22.910Z,97958.09
2023-02-17T23:37:24.707Z,97959.44
2023-02-17T23:42:26.463Z,97947.63
2023-02-17T23:47:28.238Z,97932.19
2023-02-17T23:52:29.952Z,97939.84
2023-02-17T23:57:36.084Z,97944.22
